Current | Forecast
Updated: 1:00 PM JST on February 21, 2018
Observed at Obihiro, Japan
Temperature 23°F
Windchill 16°F
Humidity 36%
Dew Point 0°F
Wind WNW at 6 mph
Pressure 29.80 in (Steady)
Conditions Scattered Clouds
Visibility 6.2 miles
UV 3 out of 16
Clouds (FEW) : 3000 ft
Scattered Clouds (SCT) : 6000 ft
Yesterday's Maximum 27°F
Yesterday's Minimum 5°F approx.
Yesterday's Heating Degree Days 49 approx.
Sunrise6:15 AM JST
Sunset5:06 PM JST
Moon Rise9:05 AM JST
Moon Set10:34 PM JST
Moon PhaseMoon Phase
Waxing Crescent
Raw METARMETAR RJCB 210400Z 29005KT 200V350 9999 FEW030 SCT060 M05/M18 Q1009


Monday
. High: 62° F.
Tuesday
. High: 60° F.
Wednesday
. High: 59° F.
Thursday
. High: 64° F.
Friday
. High: 60° F.
Saturday
. High: 57° F.
Sunday
. High: 50° F.
Monday
. High: 53° F.

Units: English | Metric

Find the Weather for any City, State or Zipcode, or Country:

U.S. State List | Severe Weather | Tropical Storms | Ski Conditions
United States | Canada | Central America | South America | Asia | Europe | Australia | Africa | Islands

Weather Underground

© Copyright 2018
The Weather Company, LLC